Time;durP1;ratioP1;P1;durP2;ratioP2;P2;SDS_P1;SDS_P2;PMS_P1;PMS_P2;Temp;Humidity;BMP_temperature;BMP_pressure;BME280_temperature;BME280_humidity;BME280_pressure;Samples;Min_cycle;Max_cycle;Signal;HPM_P1;HPM_P2
2021/11/01 00:00:44;;;;;;;8.68;2.58;;;;;;;9.48;93.08;99777.69;4815045;29;20046;-82
2021/11/01 00:03:10;;;;;;;20.92;2.90;;;;;;;9.47;93.52;99779.47;4826520;29;20356;-82
2021/11/01 00:05:35;;;;;;;15.38;2.70;;;;;;;9.46;93.18;99769.94;4829089;29;20046;-82
2021/11/01 00:08:00;;;;;;;21.92;3.00;;;;;;;9.46;93.23;99769.06;4829773;29;20057;-82
2021/11/01 00:10:26;;;;;;;20.27;3.03;;;;;;;9.44;93.04;99771.81;4869347;29;20233;-81
2021/11/01 00:12:51;;;;;;;16.42;2.80;;;;;;;9.45;92.94;99776.09;4854031;29;20053;-81
2021/11/01 00:15:17;;;;;;;12.10;2.22;;;;;;;9.45;92.75;99760.41;4854743;29;20053;-82
2021/11/01 00:17:42;;;;;;;13.48;2.50;;;;;;;9.47;92.65;99773.41;4833377;29;20104;-81
2021/11/01 00:20:08;;;;;;;13.73;2.80;;;;;;;9.46;92.64;99775.16;4855593;29;20541;-82
2021/11/01 00:22:34;;;;;;;20.45;5.00;;;;;;;9.45;92.65;99770.84;4833585;29;20076;-81
2021/11/01 00:25:00;;;;;;;10.55;2.40;;;;;;;9.42;92.33;99771.00;4849889;29;20041;-81
2021/11/01 00:27:26;;;;;;;11.35;2.63;;;;;;;9.43;92.49;99766.66;4853981;29;20033;-82
2021/11/01 00:29:51;;;;;;;15.43;2.13;;;;;;;9.40;92.65;99763.28;4854081;29;20104;-81
2021/11/01 00:32:17;;;;;;;10.15;1.92;;;;;;;9.39;92.86;99768.59;4848862;29;20068;-81
2021/11/01 00:34:42;;;;;;;13.88;2.75;;;;;;;9.37;92.65;99763.44;4864752;29;20323;-81
2021/11/01 00:37:09;;;;;;;17.23;2.38;;;;;;;9.36;92.77;99766.13;4844955;29;20053;-81
2021/11/01 00:39:34;;;;;;;16.23;2.35;;;;;;;9.35;92.52;99765.28;4851066;29;20033;-81
2021/11/01 00:42:00;;;;;;;11.63;1.90;;;;;;;9.36;92.57;99755.66;4865412;29;20107;-81
2021/11/01 00:44:25;;;;;;;10.38;2.17;;;;;;;9.35;92.31;99752.22;4832687;29;20041;-81
2021/11/01 00:46:50;;;;;;;16.73;2.50;;;;;;;9.32;92.52;99749.75;4865513;29;20057;-81
2021/11/01 00:49:16;;;;;;;14.50;2.72;;;;;;;9.32;92.09;99754.16;4831406;29;20037;-81
2021/11/01 00:51:43;;;;;;;8.02;2.17;;;;;;;9.29;91.87;99749.91;4845908;29;20045;-81
2021/11/01 00:54:08;;;;;;;11.95;2.33;;;;;;;9.28;92.14;99748.25;4864486;29;20082;-81
2021/11/01 00:56:35;;;;;;;9.40;1.88;;;;;;;9.29;92.15;99749.06;4833392;29;20052;-81
2021/11/01 00:59:01;;;;;;;8.23;2.33;;;;;;;9.28;91.85;99750.84;4849170;29;20026;-81
2021/11/01 01:01:27;;;;;;;12.27;2.08;;;;;;;9.26;91.70;99749.22;4864824;29;20060;-81
2021/11/01 01:03:52;;;;;;;10.20;2.08;;;;;;;9.26;91.87;99744.88;4830730;29;20097;-81
2021/11/01 01:06:18;;;;;;;12.98;2.45;;;;;;;9.26;91.89;99752.72;4862616;29;20107;-82
2021/11/01 01:08:43;;;;;;;9.57;2.50;;;;;;;9.24;91.48;99744.09;4865603;29;20045;-81
2021/11/01 01:11:09;;;;;;;9.45;2.15;;;;;;;9.22;91.63;99741.56;4848998;29;20048;-81
2021/11/01 01:13:38;;;;;;;14.30;2.25;;;;;;;9.17;91.40;99735.75;4865093;29;20049;-81
2021/11/01 01:16:26;;;;;;;15.20;2.08;;;;;;;9.18;91.48;99747.03;4849220;29;20104;-82
2021/11/01 01:18:52;;;;;;;10.77;1.50;;;;;;;9.18;91.54;99742.63;4864501;29;20065;-81
2021/11/01 01:24:02;;;;;;;10.10;2.20;;;;;;;9.17;91.23;99734.91;4848318;29;20098;-81
2021/11/01 01:26:27;;;;;;;12.15;2.20;;;;;;;9.15;90.94;99728.88;4833865;29;20057;-81
2021/11/01 01:28:53;;;;;;;5.85;2.05;;;;;;;9.14;91.17;99724.59;4865732;29;20405;-81
2021/11/01 01:31:18;;;;;;;8.27;2.22;;;;;;;9.12;91.06;99731.69;4832559;29;20646;-81
2021/11/01 01:33:43;;;;;;;12.02;2.42;;;;;;;9.12;91.08;99722.06;4865358;29;20041;-81
2021/11/01 01:36:09;;;;;;;8.82;1.75;;;;;;;9.08;91.14;99707.50;4864587;29;20053;-81
2021/11/01 01:38:35;;;;;;;10.63;2.40;;;;;;;9.09;91.10;99714.38;4815254;29;20065;-81
2021/11/01 01:41:17;;;;;;;11.13;2.63;;;;;;;9.09;90.91;99705.72;4861713;29;20045;-81
2021/11/01 01:43:45;;;;;;;14.90;2.17;;;;;;;9.09;90.76;99716.16;4848619;29;20033;-81
2021/11/01 01:46:11;;;;;;;11.68;2.50;;;;;;;9.08;90.89;99704.00;4864889;29;20049;-81
2021/11/01 01:48:36;;;;;;;7.63;1.80;;;;;;;9.08;90.93;99706.63;4865485;29;20232;-81
2021/11/01 01:51:02;;;;;;;10.27;2.20;;;;;;;9.07;90.60;99704.97;4852281;29;20032;-82
2021/11/01 01:53:27;;;;;;;12.55;2.45;;;;;;;9.06;90.89;99698.91;4845891;29;20056;-81
2021/11/01 01:55:53;;;;;;;13.48;1.80;;;;;;;9.06;90.37;99690.19;4852034;29;20100;-81
2021/11/01 01:58:23;;;;;;;11.10;2.40;;;;;;;9.03;90.75;99697.28;4868148;29;20049;-81
2021/11/01 02:03:18;;;;;;;9.23;1.83;;;;;;;9.03;90.59;99684.22;4851465;29;20037;-81
2021/11/01 02:05:54;;;;;;;14.65;1.95;;;;;;;9.02;90.51;99693.00;4868226;29;20051;-81
2021/11/01 02:08:19;;;;;;;10.70;2.15;;;;;;;9.02;90.85;99695.59;4836544;29;20049;-81
2021/11/01 02:10:53;;;;;;;12.23;2.53;;;;;;;9.02;90.88;99702.56;4868234;29;20163;-81
2021/11/01 02:13:20;;;;;;;10.35;2.20;;;;;;;9.00;90.94;99689.63;4830006;29;20042;-81
2021/11/01 02:15:52;;;;;;;4.63;1.35;;;;;;;9.01;90.95;99699.13;4832306;29;20045;-81
2021/11/01 02:18:18;;;;;;;9.60;1.70;;;;;;;9.00;91.08;99701.81;4836180;29;20401;-81
2021/11/01 02:20:55;;;;;;;7.10;1.77;;;;;;;9.00;91.23;99707.03;4833416;29;20113;-81
2021/11/01 02:23:38;;;;;;;5.97;1.65;;;;;;;8.99;91.01;99715.81;4851297;29;20109;-81
2021/11/01 02:26:04;;;;;;;6.22;1.90;;;;;;;8.98;91.16;99712.34;4838293;29;20033;-81
2021/11/01 02:28:35;;;;;;;9.38;2.22;;;;;;;9.00;91.15;99713.13;4867448;29;20048;-81
2021/11/01 02:31:00;;;;;;;12.77;2.67;;;;;;;8.99;90.90;99718.41;4836225;29;20321;-81
2021/11/01 02:33:26;;;;;;;10.63;1.73;;;;;;;8.99;91.05;99714.03;4820211;29;20037;-81
2021/11/01 02:35:52;;;;;;;8.80;1.98;;;;;;;8.95;90.87;99717.75;4835859;29;20051;-81
2021/11/01 02:38:19;;;;;;;11.18;1.60;;;;;;;8.97;90.70;99720.28;4851165;29;20092;-81
2021/11/01 02:40:45;;;;;;;9.38;1.70;;;;;;;8.96;90.74;99718.56;4851323;29;20056;-81
2021/11/01 02:43:10;;;;;;;10.75;2.25;;;;;;;8.98;90.92;99719.34;4837102;29;20252;-81
2021/11/01 02:45:36;;;;;;;11.95;1.80;;;;;;;8.96;90.73;99711.56;4850872;29;20424;-81
2021/11/01 02:48:01;;;;;;;11.48;2.13;;;;;;;8.97;90.85;99709.81;4850858;29;20037;-81
2021/11/01 02:50:27;;;;;;;13.77;1.40;;;;;;;8.99;91.06;99700.13;4850704;29;20028;-81
2021/11/01 02:52:52;;;;;;;14.80;2.35;;;;;;;8.99;90.66;99711.41;4835487;29;20260;-81
2021/11/01 02:55:19;;;;;;;10.52;1.58;;;;;;;9.00;90.99;99712.25;4835222;29;20092;-81
2021/11/01 02:57:44;;;;;;;7.78;1.67;;;;;;;9.00;90.87;99715.72;4867750;29;20037;-81
2021/11/01 03:00:10;;;;;;;10.32;2.00;;;;;;;9.02;90.92;99713.00;4866468;29;20056;-81
2021/11/01 03:02:36;;;;;;;12.60;2.13;;;;;;;9.02;91.15;99713.00;4835348;29;20029;-81
2021/11/01 03:05:10;;;;;;;5.95;1.42;;;;;;;9.02;91.08;99715.63;4869229;29;20041;-83
2021/11/01 03:07:36;;;;;;;5.50;2.00;;;;;;;9.01;91.09;99716.56;4868445;29;20280;-83
2021/11/01 03:10:03;;;;;;;10.70;2.08;;;;;;;9.02;91.00;99726.06;4853276;29;20041;-83
2021/11/01 03:12:32;;;;;;;9.32;2.40;;;;;;;9.01;91.07;99716.56;4852396;29;20120;-82
2021/11/01 03:15:06;;;;;;;7.32;1.60;;;;;;;9.02;90.97;99715.63;4837556;29;20052;-83
2021/11/01 03:17:43;;;;;;;6.95;1.60;;;;;;;9.01;91.03;99727.84;4852797;29;20078;-83
2021/11/01 03:20:10;;;;;;;9.05;2.13;;;;;;;9.01;90.90;99721.78;4853042;29;20097;-83
2021/11/01 03:22:40;;;;;;;7.50;1.70;;;;;;;8.99;90.99;99721.88;4868565;29;20033;-83
2021/11/01 03:25:18;;;;;;;4.40;1.60;;;;;;;9.00;91.24;99713.13;4837170;29;20049;-83
2021/11/01 03:27:49;;;;;;;6.93;2.78;;;;;;;9.00;91.12;99705.28;4834137;29;20446;-83
2021/11/01 03:30:15;;;;;;;11.50;2.08;;;;;;;9.01;91.00;99719.19;4834601;29;20045;-83
2021/11/01 03:32:40;;;;;;;14.95;1.92;;;;;;;8.98;91.18;99712.34;4839807;29;20052;-83
2021/11/01 03:35:06;;;;;;;9.00;1.98;;;;;;;8.97;91.06;99707.22;4860004;29;20049;-83
2021/11/01 03:37:32;;;;;;;12.00;2.03;;;;;;;8.95;90.86;99703.81;4852063;29;20052;-83
2021/11/01 03:39:59;;;;;;;16.73;2.83;;;;;;;8.92;90.95;99698.78;4836311;29;20049;-83
2021/11/01 03:42:26;;;;;;;4.75;1.92;;;;;;;8.92;90.97;99699.59;4851776;29;20068;-83
2021/11/01 03:44:58;;;;;;;9.10;1.77;;;;;;;8.91;90.92;99703.13;4836661;29;20116;-83
2021/11/01 03:47:25;;;;;;;10.23;2.35;;;;;;;8.90;91.15;99696.25;4837152;29;20100;-84
2021/11/01 03:49:58;;;;;;;8.75;1.90;;;;;;;8.88;91.28;99702.44;4838077;29;20041;-83
2021/11/01 03:52:28;;;;;;;7.82;2.25;;;;;;;8.88;91.32;99692.88;4853427;29;20037;-83
2021/11/01 03:54:54;;;;;;;9.60;1.67;;;;;;;8.84;91.18;99692.19;4837940;29;20053;-83
2021/11/01 03:57:20;;;;;;;8.20;1.50;;;;;;;8.85;91.37;99690.41;4822267;29;20078;-83
2021/11/01 03:59:46;;;;;;;8.80;1.55;;;;;;;8.84;91.35;99691.31;4837515;29;20060;-83
2021/11/01 04:02:16;;;;;;;8.75;1.95;;;;;;;8.84;91.19;99688.69;4837187;29;20033;-83
2021/11/01 04:04:46;;;;;;;8.05;1.73;;;;;;;8.81;91.13;99691.50;4833979;29;20325;-83
2021/11/01 04:07:11;;;;;;;12.52;1.75;;;;;;;8.82;91.18;99687.94;4829927;29;20249;-83
2021/11/01 04:09:37;;;;;;;8.63;1.55;;;;;;;8.81;90.95;99687.09;4851490;29;20033;-83
2021/11/01 04:12:03;;;;;;;8.90;1.98;;;;;;;8.81;91.28;99684.50;4852206;29;20053;-83
2021/11/01 04:14:35;;;;;;;6.95;1.70;;;;;;;8.81;90.98;99679.28;4837054;29;20030;-83
2021/11/01 04:17:08;;;;;;;5.72;1.48;;;;;;;8.83;90.89;99673.97;4853048;29;20041;-83
2021/11/01 04:19:37;;;;;;;9.73;2.10;;;;;;;8.83;91.41;99671.38;4851682;29;20041;-83
2021/11/01 04:22:04;;;;;;;;;;;;;;;8.85;91.31;99679.97;4852944;29;20065;-83
2021/11/01 04:24:30;;;;;;;8.27;2.15;;;;;;;8.86;91.48;99676.44;4868644;29;19919;-83
2021/11/01 04:26:56;;;;;;;7.18;2.33;;;;;;;8.87;91.28;99672.88;4852373;29;20052;-83
2021/11/01 04:29:22;;;;;;;8.15;1.95;;;;;;;8.88;91.40;99673.72;4851260;29;20037;-83
2021/11/01 04:31:55;;;;;;;11.40;2.03;;;;;;;8.89;91.18;99681.47;4868307;29;20041;-83
2021/11/01 04:34:32;;;;;;;11.98;1.85;;;;;;;8.87;91.54;99678.09;4837336;29;20359;-83
2021/11/01 04:36:58;;;;;;;12.10;2.03;;;;;;;8.87;91.18;99687.72;4853346;29;20033;-83
2021/11/01 04:53:05;;;;;;;13.68;1.90;;;;;;;8.79;90.59;99707.22;4854501;29;20073;-83
2021/11/01 04:55:31;;;;;;;13.48;2.50;;;;;;;8.79;90.67;99698.56;4857542;29;20068;-83
2021/11/01 04:57:57;;;;;;;9.57;1.77;;;;;;;8.78;90.61;99702.09;4837163;29;20049;-83
2021/11/01 05:00:23;;;;;;;5.85;1.67;;;;;;;8.77;90.49;99705.63;4851550;29;20049;-83
2021/11/01 05:02:57;;;;;;;16.27;2.05;;;;;;;8.76;90.86;99704.78;4851870;29;20063;-83
2021/11/01 05:05:23;;;;;;;10.38;2.58;;;;;;;8.77;91.04;99711.69;4868156;29;20219;-83
2021/11/01 05:07:49;;;;;;;7.10;1.75;;;;;;;8.77;90.79;99700.41;4851573;29;20278;-83
2021/11/01 05:12:58;;;;;;;10.05;2.08;;;;;;;8.76;91.09;99711.75;4868564;29;20037;-83
2021/11/01 05:20:36;;;;;;;10.13;2.08;;;;;;;8.76;90.64;99716.97;4867703;29;20300;-83
2021/11/01 05:25:51;;;;;;;13.90;2.22;;;;;;;8.74;90.25;99718.84;4857477;29;20047;-83
2021/11/01 05:30:47;;;;;;;5.88;1.50;;;;;;;8.73;90.41;99718.00;4871091;29;20109;-83
2021/11/01 05:35:39;;;;;;;11.18;2.13;;;;;;;8.73;89.90;99725.81;4871340;29;20071;-83
2021/11/01 05:38:04;;;;;;;6.40;1.67;;;;;;;8.73;89.97;99718.00;4853247;29;20230;-83
2021/11/01 05:40:30;;;;;;;14.73;2.65;;;;;;;8.72;90.22;99738.94;4838086;29;20063;-83
2021/11/01 05:42:55;;;;;;;6.45;1.42;;;;;;;8.72;90.26;99723.28;4853176;29;20030;-83
2021/11/01 05:45:21;;;;;;;8.15;1.63;;;;;;;8.69;89.83;99744.31;4853317;29;20044;-83
2021/11/01 05:47:52;;;;;;;9.82;1.63;;;;;;;8.70;89.69;99730.34;4854318;29;20049;-83
2021/11/01 05:50:18;;;;;;;9.85;1.90;;;;;;;8.72;89.96;99734.56;4839455;29;20078;-83
2021/11/01 05:52:44;;;;;;;8.25;1.80;;;;;;;8.71;89.81;99740.69;4838219;29;20282;-83
2021/11/01 06:03:14;;;;;;;7.45;1.85;;;;;;;8.65;89.86;99739.25;4851603;29;20038;-83
2021/11/01 06:13:27;;;;;;;7.75;2.05;;;;;;;8.54;90.05;99749.38;4852517;29;20345;-83
2021/11/01 06:15:53;;;;;;;9.55;1.52;;;;;;;8.56;90.20;99754.53;4855481;29;20101;-83
2021/11/01 06:18:19;;;;;;;7.93;1.50;;;;;;;8.53;90.17;99754.66;4852283;29;20034;-83
2021/11/01 06:20:44;;;;;;;13.20;1.40;;;;;;;8.52;90.39;99751.22;4837936;29;20044;-83
2021/11/01 06:23:10;;;;;;;8.90;1.40;;;;;;;8.51;90.46;99761.72;4853105;29;20374;-83
2021/11/01 06:25:36;;;;;;;6.57;1.08;;;;;;;8.50;90.59;99767.88;4850080;29;20073;-84
2021/11/01 06:28:02;;;;;;;7.82;1.73;;;;;;;8.50;90.71;99765.28;4836225;29;20056;-83
2021/11/01 06:30:31;;;;;;;6.95;1.50;;;;;;;8.49;90.69;99766.19;4866262;29;20049;-83
2021/11/01 07:15:30;;;;;;;6.80;1.73;;;;;;;8.68;90.26;99782.63;4852953;29;20312;-83
2021/11/01 07:26:12;;;;;;;9.20;1.90;;;;;;;8.78;90.93;99777.78;4868794;29;20043;-83
2021/11/01 08:20:54;;;;;;;7.05;2.13;;;;;;;8.88;88.49;99838.22;4856909;29;20228;-84
2021/11/01 08:23:44;;;;;;;3.97;1.50;;;;;;;8.89;88.32;99837.31;4847506;29;20049;-85
2021/11/01 08:26:42;;;;;;;10.15;1.63;;;;;;;8.91;88.59;99828.47;4833899;29;20047;-84
2021/11/01 08:37:18;;;;;;;4.85;1.70;;;;;;;8.95;88.16;99822.19;4864714;29;20375;-84
2021/11/01 08:45:22;;;;;;;6.70;1.77;;;;;;;9.00;87.70;99833.25;4844483;29;20051;-84
2021/11/01 09:06:46;;;;;;;5.78;1.85;;;;;;;9.10;87.89;99835.41;4853594;29;20041;-84
2021/11/01 09:20:03;;;;;;;7.10;1.42;;;;;;;9.20;87.26;99834.00;4849626;29;20052;-84
2021/11/01 09:23:03;;;;;;;5.38;1.70;;;;;;;9.26;88.04;99828.47;4830148;29;20105;-84
2021/11/01 09:25:43;;;;;;;11.00;1.45;;;;;;;9.29;87.38;99833.50;4843161;29;20045;-84
2021/11/01 09:28:26;;;;;;;6.88;2.03;;;;;;;9.31;87.61;99834.28;4836306;29;20037;-84
2021/11/01 09:39:00;;;;;;;5.60;1.20;;;;;;;9.44;85.84;99841.50;4842946;29;20070;-84
2021/11/01 09:41:26;;;;;;;5.43;1.35;;;;;;;9.45;85.00;99844.03;4855561;29;20064;-84
2021/11/01 09:43:53;;;;;;;7.57;1.60;;;;;;;9.49;85.03;99849.94;4849476;29;20085;-84
2021/11/01 09:46:21;;;;;;;5.10;1.00;;;;;;;9.51;84.94;99853.31;4849568;29;20042;-84
2021/11/01 09:48:46;;;;;;;8.15;1.20;;;;;;;9.51;85.40;99853.31;4852269;29;20037;-84
2021/11/01 09:51:12;;;;;;;6.00;1.23;;;;;;;9.55;84.97;99854.84;4875120;29;20056;-84
2021/11/01 09:53:41;;;;;;;1.15;0.60;;;;;;;9.57;84.84;99859.09;4867525;29;20048;-84
2021/11/01 09:56:19;;;;;;;6.72;1.15;;;;;;;9.61;84.61;99844.91;4854502;29;20390;-84
2021/11/01 10:01:30;;;;;;;2.33;0.98;;;;;;;9.69;85.00;99841.91;4839953;29;20117;-84
2021/11/01 10:03:56;;;;;;;9.65;1.15;;;;;;;9.72;85.07;99851.38;4854534;29;20265;-84
2021/11/01 10:06:23;;;;;;;3.90;1.08;;;;;;;9.74;84.42;99844.28;4854315;29;20036;-84
2021/11/01 10:08:49;;;;;;;6.13;0.90;;;;;;;9.80;83.70;99839.56;4869384;29;20041;-85
2021/11/01 10:11:17;;;;;;;6.45;1.40;;;;;;;9.85;84.43;99846.31;4835956;29;20045;-84
2021/11/01 10:13:43;;;;;;;7.70;1.00;;;;;;;9.88;85.07;99846.16;4849136;29;20069;-84
2021/11/01 10:18:52;;;;;;;7.03;1.00;;;;;;;9.91;84.06;99846.81;4845547;29;20048;-84
2021/11/01 10:21:19;;;;;;;6.50;1.42;;;;;;;9.93;84.80;99849.34;4835156;29;20276;-84
2021/11/01 10:23:49;;;;;;;8.07;1.38;;;;;;;9.95;84.88;99857.97;4850848;29;20053;-84
2021/11/01 10:26:19;;;;;;;2.13;1.10;;;;;;;9.97;83.64;99858.75;4854441;29;20162;-84
2021/11/01 10:28:51;;;;;;;8.60;1.10;;;;;;;9.98;84.17;99858.66;4818020;29;20333;-84
2021/11/01 10:31:24;;;;;;;4.65;1.23;;;;;;;9.99;84.54;99862.97;4849922;29;20136;-84
2021/11/01 10:33:51;;;;;;;2.38;0.82;;;;;;;10.04;84.16;99867.97;4822489;29;20039;-85
2021/11/01 10:36:33;;;;;;;5.47;1.10;;;;;;;10.06;83.25;99865.25;4851131;29;20247;-85
2021/11/01 10:39:01;;;;;;;9.68;1.42;;;;;;;10.08;84.42;99868.63;4838100;29;20062;-84
2021/11/01 10:41:39;;;;;;;5.82;1.20;;;;;;;10.10;85.05;99866.78;4834270;29;20037;-84
2021/11/01 10:44:15;;;;;;;11.37;1.27;;;;;;;10.14;85.00;99876.16;4833725;29;20494;-84
2021/11/01 11:14:03;;;;;;;3.75;0.90;;;;;;;10.50;82.59;99869.84;4864371;29;20046;-84
2021/11/01 11:19:25;;;;;;;5.88;1.10;;;;;;;10.50;82.24;99875.94;4837313;29;20458;-84
2021/11/01 11:22:12;;;;;;;4.20;0.80;;;;;;;10.49;82.31;99869.00;4819931;29;20104;-84
2021/11/01 11:42:07;;;;;;;2.33;0.88;;;;;;;10.59;82.84;99856.25;4845843;29;20049;-84
2021/11/01 11:49:26;;;;;;;7.57;1.25;;;;;;;10.67;83.21;99868.91;4864489;29;20092;-84
2021/11/01 11:51:59;;;;;;;5.18;1.20;;;;;;;10.69;82.99;99861.78;4824322;29;20043;-84
2021/11/01 11:54:45;;;;;;;6.10;1.00;;;;;;;10.70;82.91;99859.09;4835270;29;20064;-84
2021/11/01 11:57:17;;;;;;;6.40;1.30;;;;;;;10.72;82.79;99854.63;4863146;29;20041;-84
2021/11/01 11:59:46;;;;;;;5.53;1.48;;;;;;;10.76;83.41;99876.22;4864316;29;20273;-84
2021/11/01 12:02:11;;;;;;;6.60;0.90;;;;;;;10.79;82.56;99873.44;4831813;29;20042;-84
2021/11/01 12:04:44;;;;;;;3.75;0.73;;;;;;;10.81;82.63;99865.50;4847897;29;20037;-85
2021/11/01 12:07:13;;;;;;;3.10;1.15;;;;;;;10.84;82.32;99878.41;4848203;29;20065;-84
2021/11/01 12:09:50;;;;;;;6.15;0.90;;;;;;;10.84;82.21;99868.81;4833020;29;20033;-84
2021/11/01 12:17:29;;;;;;;7.07;1.20;;;;;;;10.85;80.44;99865.22;4847462;29;20045;-84
2021/11/01 12:20:08;;;;;;;14.57;1.50;;;;;;;10.86;81.50;99872.16;4837647;29;20328;-84
2021/11/01 12:22:37;;;;;;;2.38;1.33;;;;;;;10.85;81.49;99870.47;4834080;29;20037;-84
2021/11/01 12:25:06;;;;;;;6.55;1.10;;;;;;;10.85;82.56;99860.00;4834655;29;20052;-84
2021/11/01 12:27:34;;;;;;;12.50;1.52;;;;;;;10.88;82.12;99872.91;4851868;29;20045;-84
2021/11/01 12:30:07;;;;;;;11.25;2.25;;;;;;;10.91;82.11;99864.03;4860924;29;20048;-84
2021/11/01 12:32:38;;;;;;;2.83;0.95;;;;;;;10.93;81.80;99860.41;4835154;29;20038;-84
2021/11/01 12:35:06;;;;;;;7.07;1.20;;;;;;;10.97;81.12;99873.31;4832231;29;20037;-84
2021/11/01 12:37:34;;;;;;;5.10;2.13;;;;;;;11.03;81.20;99857.25;4847289;29;20241;-84
2021/11/01 12:40:18;;;;;;;5.07;1.42;;;;;;;11.05;81.71;99866.69;4849954;29;20064;-84
2021/11/01 12:43:06;;;;;;;6.38;1.30;;;;;;;11.09;81.00;99869.97;4835873;29;20041;-84
2021/11/01 12:58:43;;;;;;;4.28;0.98;;;;;;;10.99;80.96;99880.16;4831582;29;20100;-84
2021/11/01 13:01:10;;;;;;;4.90;1.77;;;;;;;10.99;81.92;99876.69;4829273;29;20037;-84
2021/11/01 13:03:36;;;;;;;4.07;1.17;;;;;;;11.01;82.43;99874.84;4844519;29;20045;-84
2021/11/01 13:06:09;;;;;;;4.78;1.10;;;;;;;11.02;82.46;99869.50;4841025;29;20045;-84
2021/11/01 13:08:48;;;;;;;5.78;1.45;;;;;;;11.04;81.88;99866.78;4830710;29;20077;-84
2021/11/01 13:13:59;;;;;;;3.05;1.02;;;;;;;11.06;81.58;99871.03;4846123;29;20045;-84
2021/11/01 13:19:15;;;;;;;7.30;1.33;;;;;;;11.10;81.63;99862.03;4849002;29;20097;-84
2021/11/01 13:21:49;;;;;;;4.85;1.23;;;;;;;11.09;80.57;99864.75;4846886;29;20053;-84
2021/11/01 13:24:15;;;;;;;7.55;1.85;;;;;;;11.09;80.94;99873.44;4833070;29;20308;-85
2021/11/01 13:37:25;;;;;;;8.63;1.30;;;;;;;10.94;78.78;99859.47;4837413;29;20072;-84
2021/11/01 13:40:02;;;;;;;;;;;;;;;10.92;80.75;99870.97;4848098;29;20094;-85
2021/11/01 13:42:27;;;;;;;8.30;1.65;;;;;;;10.89;81.46;99863.28;4840733;29;19951;-84
2021/11/01 13:44:53;;;;;;;5.13;1.30;;;;;;;10.87;80.83;99857.28;4842090;29;20246;-84
2021/11/01 13:47:18;;;;;;;7.70;1.55;;;;;;;10.87;81.38;99859.91;4849379;29;20129;-85
2021/11/01 13:49:45;;;;;;;7.97;1.65;;;;;;;10.88;82.21;99854.59;4855365;29;20388;-85
2021/11/01 13:52:27;;;;;;;8.18;1.42;;;;;;;10.90;82.25;99850.09;4848988;29;20093;-84
2021/11/01 13:55:05;;;;;;;7.18;1.48;;;;;;;10.91;82.46;99856.16;4838648;29;20108;-85
2021/11/01 13:57:38;;;;;;;16.23;1.65;;;;;;;10.93;81.65;99856.91;4831818;29;20121;-84
2021/11/01 14:00:22;;;;;;;9.43;1.70;;;;;;;10.93;81.49;99847.31;4836084;29;20333;-84
2021/11/01 14:29:29;;;;;;;4.70;1.40;;;;;;;10.58;83.08;99870.25;4846260;29;20048;-85
2021/11/01 14:54:55;;;;;;;5.53;1.42;;;;;;;10.54;84.03;99869.59;4846436;29;20064;-85
2021/11/01 15:15:03;;;;;;;3.60;0.65;;;;;;;9.91;83.87;99882.59;4843305;29;20060;-86
2021/11/01 15:20:04;;;;;;;1.38;0.52;;;;;;;9.77;83.44;99870.28;4847141;29;20113;-86
2021/11/01 15:22:50;;;;;;;2.53;0.45;;;;;;;9.70;83.39;99874.97;4851582;29;20042;-86
2021/11/01 15:31:11;;;;;;;1.20;0.60;;;;;;;9.66;84.13;99869.97;4843639;29;20289;-86
2021/11/01 16:20:18;;;;;;;1.58;0.50;;;;;;;9.25;83.63;99892.09;4806435;29;20023;-86
2021/11/01 16:22:44;;;;;;;2.10;0.43;;;;;;;9.22;84.05;99903.53;4834824;29;20362;-85
2021/11/01 16:25:09;;;;;;;0.77;0.50;;;;;;;9.21;84.06;99901.00;4832448;29;20040;-86
2021/11/01 16:27:42;;;;;;;1.48;0.55;;;;;;;9.16;84.05;99903.84;4846520;29;20037;-86
2021/11/01 16:30:17;;;;;;;0.73;0.60;;;;;;;9.17;84.03;99902.09;4851832;29;20477;-86
2021/11/01 16:32:44;;;;;;;0.70;0.40;;;;;;;9.16;83.42;99895.16;4855297;29;20241;-86
2021/11/01 16:35:12;;;;;;;1.73;0.63;;;;;;;9.13;83.65;99898.78;4846391;29;20345;-86
2021/11/01 16:37:49;;;;;;;0.97;0.50;;;;;;;9.11;83.43;99902.38;4863597;29;20113;-86
2021/11/01 16:40:15;;;;;;;1.92;0.98;;;;;;;9.08;83.65;99907.75;4834537;29;20036;-86
2021/11/01 16:42:42;;;;;;;1.95;1.10;;;;;;;9.04;83.53;99909.69;4842950;29;20396;-85
2021/11/01 16:45:18;;;;;;;1.33;1.17;;;;;;;9.02;83.09;99908.88;4862595;29;20411;-85
2021/11/01 16:47:45;;;;;;;1.00;0.73;;;;;;;8.99;83.18;99912.50;4837871;29;20041;-86
2021/11/01 16:50:12;;;;;;;3.55;1.23;;;;;;;8.97;83.09;99916.97;4831900;29;20053;-86
2021/11/01 16:52:38;;;;;;;1.92;0.95;;;;;;;8.97;83.36;99922.19;4835585;29;20040;-85
2021/11/01 16:55:10;;;;;;;0.95;0.60;;;;;;;8.96;83.66;99922.25;4833259;29;20045;-85
2021/11/01 16:57:42;;;;;;;0.50;0.40;;;;;;;8.97;83.73;99927.41;4865975;29;20049;-85
2021/11/01 17:05:09;;;;;;;2.00;0.60;;;;;;;8.90;84.56;99918.19;4833674;29;20054;-85
2021/11/01 17:07:45;;;;;;;4.88;0.70;;;;;;;8.90;84.96;99914.72;4851944;29;20120;-85
2021/11/01 17:24:25;;;;;;;2.97;0.90;;;;;;;8.73;86.20;99931.19;4870318;29;20070;-85
2021/11/01 17:35:02;;;;;;;2.33;0.80;;;;;;;8.67;87.14;99939.31;4847902;29;20053;-86
2021/11/01 17:37:42;;;;;;;2.38;0.80;;;;;;;8.66;86.96;99941.09;4854468;29;20029;-86
2021/11/01 18:36:18;;;;;;;4.93;2.15;;;;;;;8.49;88.53;99970.56;4818748;29;20041;-86
2021/11/01 18:46:16;;;;;;;2.65;1.90;;;;;;;8.43;88.73;99981.28;4847414;29;20097;-85
2021/11/01 18:54:12;;;;;;;2.65;1.73;;;;;;;8.41;88.28;99988.31;4841676;29;20045;-85
2021/11/01 18:56:38;;;;;;;2.10;1.80;;;;;;;8.39;88.31;99988.38;4839630;29;20044;-85
2021/11/01 18:59:05;;;;;;;2.45;1.70;;;;;;;8.40;88.31;99991.81;4823049;29;20563;-85
2021/11/01 19:01:38;;;;;;;1.95;1.60;;;;;;;8.39;88.10;99997.97;4832876;29;20034;-86
2021/11/01 19:04:07;;;;;;;2.42;1.75;;;;;;;8.35;88.04;99999.88;4851160;29;20029;-85
2021/11/01 19:06:47;;;;;;;1.98;1.77;;;;;;;8.34;88.13;100003.38;4855333;29;20058;-86
2021/11/01 20:06:15;;;;;;;4.07;1.90;;;;;;;8.11;87.46;99974.88;4870207;29;20092;-85
2021/11/01 20:17:14;;;;;;;3.65;2.13;;;;;;;8.06;87.40;99970.72;4838999;29;20049;-85
2021/11/01 21:25:49;;;;;;;2.15;2.05;;;;;;;7.72;87.48;100001.75;4844009;29;20051;-85
2021/11/01 21:28:15;;;;;;;2.47;2.20;;;;;;;7.71;87.41;99990.47;4819761;29;20348;-85
2021/11/01 21:30:40;;;;;;;3.28;1.92;;;;;;;7.70;87.76;99994.00;4865853;29;20068;-85
2021/11/01 21:33:06;;;;;;;3.60;1.98;;;;;;;7.67;87.68;99989.75;4848232;29;20348;-85
2021/11/01 21:35:40;;;;;;;4.10;2.40;;;;;;;7.66;87.50;99992.44;4833209;29;20033;-85
2021/11/01 21:38:06;;;;;;;3.30;1.90;;;;;;;7.65;87.80;99988.13;4827714;29;20104;-85
2021/11/01 21:40:31;;;;;;;2.45;2.20;;;;;;;7.64;87.80;99989.91;4849963;29;20035;-85
2021/11/01 21:42:57;;;;;;;4.03;2.05;;;;;;;7.64;87.69;99986.41;4850314;29;20337;-85
2021/11/01 21:45:22;;;;;;;4.70;2.70;;;;;;;7.62;87.77;99985.66;4866972;29;20343;-85
2021/11/01 21:47:48;;;;;;;2.25;2.05;;;;;;;7.61;88.15;99984.81;4849708;29;20030;-85
2021/11/01 21:50:15;;;;;;;7.13;2.30;;;;;;;7.59;88.10;99985.78;4877589;29;20056;-85
2021/11/01 21:52:41;;;;;;;2.97;2.55;;;;;;;7.59;87.88;99988.41;4836641;29;20045;-85
2021/11/01 21:55:07;;;;;;;3.05;2.40;;;;;;;7.58;87.98;99997.13;4848702;29;20073;-85
2021/11/01 22:00:51;;;;;;;5.28;2.40;;;;;;;7.52;87.98;99989.56;4807607;29;20046;-85
2021/11/01 22:17:32;;;;;;;4.72;2.83;;;;;;;7.45;88.62;99988.97;4864456;29;20375;-85
2021/11/01 22:20:19;;;;;;;4.72;3.10;;;;;;;7.43;88.63;100003.81;4836169;29;20037;-85
2021/11/01 22:25:27;;;;;;;5.07;3.47;;;;;;;7.41;88.91;99992.63;4848926;29;20114;-85
2021/11/01 22:33:34;;;;;;;7.47;3.42;;;;;;;7.39;89.12;99989.22;4847618;29;20383;-85
2021/11/01 22:39:05;;;;;;;6.88;3.60;;;;;;;7.40;89.15;99996.13;4865502;29;20072;-85
2021/11/01 22:57:18;;;;;;;4.40;3.88;;;;;;;7.33;89.67;99985.13;4849681;29;20048;-85
2021/11/01 22:59:44;;;;;;;7.88;3.78;;;;;;;7.33;89.69;99985.13;4843119;29;20084;-86
2021/11/01 23:02:09;;;;;;;4.72;3.78;;;;;;;7.33;89.60;99981.66;4847317;29;20049;-86
2021/11/01 23:04:48;;;;;;;6.35;3.97;;;;;;;7.31;89.59;99973.88;4828214;29;20042;-86
2021/11/01 23:31:49;;;;;;;6.65;4.50;;;;;;;7.23;90.23;99975.97;4844652;29;20076;-85
2021/11/01 23:34:15;;;;;;;6.97;5.43;;;;;;;7.20;90.29;99974.31;4859090;29;20345;-85
2021/11/01 23:36:41;;;;;;;5.55;4.65;;;;;;;7.23;90.39;99970.75;4840571;29;20044;-85
2021/11/01 23:39:08;;;;;;;5.43;4.45;;;;;;;7.22;90.60;99976.88;4846713;29;20053;-85
2021/11/01 23:41:35;;;;;;;5.13;4.43;;;;;;;7.21;90.63;99972.59;4871359;29;20045;-85
2021/11/01 23:44:00;;;;;;;4.35;3.95;;;;;;;7.19;90.64;99977.00;4843846;29;20040;-85